createdAt,value
2023-04-01T00:00:59.723Z,9.40
2023-04-01T00:03:36.509Z,9.35
2023-04-01T00:06:25.697Z,9.34
2023-04-01T00:09:07.719Z,9.33
2023-04-01T00:12:02.725Z,9.29
2023-04-01T00:14:57.712Z,9.25
2023-04-01T00:17:45.739Z,9.21
2023-04-01T00:20:21.145Z,9.17
2023-04-01T00:23:09.928Z,9.16
2023-04-01T00:25:46.749Z,9.14
2023-04-01T00:28:37.731Z,9.11
2023-04-01T00:31:22.762Z,9.07
2023-04-01T00:34:10.686Z,9.01
2023-04-01T00:36:53.397Z,8.95
2023-04-01T00:39:37.707Z,8.93
2023-04-01T00:42:19.161Z,8.91
2023-04-01T00:45:02.722Z,8.86
2023-04-01T00:47:44.072Z,8.81
2023-04-01T00:50:25.715Z,8.76
2023-04-01T00:53:14.708Z,8.69
2023-04-01T00:56:14.661Z,8.63
2023-04-01T00:59:10.894Z,8.54
2023-04-01T01:01:46.300Z,8.44
2023-04-01T01:04:40.708Z,8.36
2023-04-01T01:07:27.716Z,8.30
2023-04-01T01:10:28.046Z,8.24
2023-04-01T01:13:51.699Z,8.21
2023-04-01T01:16:53.776Z,8.19
2023-04-01T01:20:45.724Z,8.16
2023-04-01T01:24:00.722Z,8.07
2023-04-01T01:26:47.697Z,7.99
2023-04-01T01:30:14.734Z,7.93
2023-04-01T01:33:29.713Z,7.89
2023-04-01T01:36:20.769Z,7.84
2023-04-01T01:38:56.823Z,7.80
2023-04-01T01:41:45.729Z,7.78
2023-04-01T01:44:28.703Z,7.78
2023-04-01T01:47:23.709Z,7.79
2023-04-01T01:50:12.705Z,7.79
2023-04-01T01:52:47.848Z,7.79
2023-04-01T01:55:44.709Z,7.78
2023-04-01T01:58:26.877Z,7.77
2023-04-01T02:01:18.776Z,7.77
2023-04-01T02:03:54.829Z,7.78
2023-04-01T02:06:45.703Z,7.77
2023-04-01T02:09:27.709Z,7.77
2023-04-01T02:12:17.693Z,7.77
2023-04-01T02:15:12.694Z,7.77
2023-04-01T02:18:08.729Z,7.80
2023-04-01T02:20:56.704Z,7.85
2023-04-01T02:23:37.909Z,7.90
2023-04-01T02:26:19.707Z,7.93
2023-04-01T02:29:01.827Z,7.99
2023-04-01T02:31:42.756Z,8.05
2023-04-01T02:34:24.034Z,8.10
2023-04-01T02:37:06.696Z,8.13
2023-04-01T02:39:55.898Z,8.15
2023-04-01T02:42:37.776Z,8.14
2023-04-01T02:45:21.837Z,8.17
2023-04-01T02:48:02.960Z,8.20
2023-04-01T02:50:45.017Z,8.21
2023-04-01T02:53:26.897Z,8.22
2023-04-01T02:56:08.058Z,8.21
2023-04-01T02:58:49.912Z,8.18
2023-04-01T03:01:38.810Z,8.18
2023-04-01T03:04:34.721Z,8.20
2023-04-01T03:07:22.716Z,8.21
2023-04-01T03:09:58.012Z,8.23
2023-04-01T03:12:48.699Z,8.24
2023-04-01T03:15:24.057Z,8.25
2023-04-01T03:18:13.912Z,8.27
2023-04-01T03:20:55.890Z,8.29
2023-04-01T03:23:50.761Z,8.28
2023-04-01T03:26:38.888Z,8.27
2023-04-01T03:29:23.693Z,8.25
2023-04-01T03:32:11.694Z,8.28
2023-04-01T03:34:46.804Z,8.29
2023-04-01T03:37:34.701Z,8.28
2023-04-01T03:40:09.818Z,8.28
2023-04-01T03:42:58.763Z,8.28
2023-04-01T03:45:34.046Z,8.31
2023-04-01T03:48:22.692Z,8.33
2023-04-01T03:50:57.829Z,8.35
2023-04-01T03:53:45.684Z,8.36
2023-04-01T03:56:20.894Z,8.37
2023-04-01T03:59:14.702Z,8.39
2023-04-01T04:02:03.874Z,8.44
2023-04-01T04:04:39.174Z,8.47
2023-04-01T04:07:27.688Z,8.47
2023-04-01T04:10:02.125Z,8.47
2023-04-01T04:12:49.702Z,8.47
2023-04-01T04:15:37.693Z,8.49
2023-04-01T04:18:32.697Z,8.50
2023-04-01T04:21:21.706Z,8.50
2023-04-01T04:23:56.868Z,8.52
2023-04-01T04:26:44.692Z,8.51
2023-04-01T04:29:18.832Z,8.53
2023-04-01T04:32:06.751Z,8.54
2023-04-01T04:34:42.810Z,8.54
2023-04-01T04:37:30.686Z,8.53
2023-04-01T04:40:12.672Z,8.52
2023-04-01T04:43:07.699Z,8.49
2023-04-01T04:45:55.696Z,8.53
2023-04-01T04:48:30.944Z,8.58
2023-04-01T04:51:23.699Z,8.61
2023-04-01T04:53:58.834Z,8.66
2023-04-01T04:56:46.781Z,8.70
2023-04-01T04:59:28.683Z,8.72
2023-04-01T05:02:16.810Z,8.78
2023-04-01T05:07:50.750Z,8.92
2023-04-01T05:10:39.709Z,8.96
2023-04-01T05:13:21.707Z,9.00
2023-04-01T05:16:17.756Z,9.04
2023-04-01T05:19:05.780Z,9.12
2023-04-01T05:21:47.706Z,9.18
2023-04-01T05:24:35.716Z,9.23
2023-04-01T05:27:10.842Z,9.28
2023-04-01T05:29:58.780Z,9.34
2023-04-01T05:32:34.034Z,9.40
2023-04-01T05:35:21.780Z,9.47
2023-04-01T05:38:03.750Z,9.55
2023-04-01T05:40:58.701Z,9.64
2023-04-01T05:43:47.714Z,9.73
2023-04-01T05:46:22.913Z,9.81
2023-04-01T05:49:10.787Z,9.84
2023-04-01T05:51:45.925Z,9.80
2023-04-01T05:54:33.756Z,9.79
2023-04-01T05:57:08.999Z,9.77
2023-04-01T05:59:56.728Z,9.78
2023-04-01T06:02:31.998Z,9.84
2023-04-01T06:05:26.759Z,9.91
2023-04-01T06:08:19.855Z,9.95
2023-04-01T06:11:14.659Z,10.06
2023-04-01T06:14:06.956Z,10.21
2023-04-01T06:17:02.684Z,10.39
2023-04-01T06:19:46.820Z,10.59
2023-04-01T06:22:54.734Z,10.70
2023-04-01T06:25:40.806Z,10.72
2023-04-01T06:28:58.671Z,10.69
2023-04-01T06:31:44.876Z,10.83
2023-04-01T06:35:03.669Z,11.06
2023-04-01T06:37:52.804Z,11.29
2023-04-01T06:41:31.682Z,11.54
2023-04-01T06:44:14.808Z,11.82
2023-04-01T06:47:10.758Z,11.91
2023-04-01T06:49:48.818Z,11.92
2023-04-01T06:52:45.912Z,11.93
2023-04-01T06:55:36.726Z,11.97
2023-04-01T06:58:36.666Z,12.09
2023-04-01T07:01:21.794Z,12.30
2023-04-01T07:04:24.746Z,12.45
2023-04-01T07:07:29.795Z,12.49
2023-04-01T07:10:28.651Z,12.46
2023-04-01T07:13:06.813Z,12.49
2023-04-01T07:16:04.673Z,12.57
2023-04-01T07:19:08.790Z,12.69
2023-04-01T07:22:03.664Z,12.69
2023-04-01T07:24:44.796Z,12.56
2023-04-01T07:27:32.663Z,12.44
2023-04-01T07:30:15.657Z,12.37
2023-04-01T07:33:23.662Z,12.35
2023-04-01T07:36:16.815Z,12.44
2023-04-01T07:39:05.769Z,12.51
2023-04-01T07:42:00.994Z,12.50
2023-04-01T07:45:07.761Z,12.53
2023-04-01T07:48:03.910Z,12.70
2023-04-01T07:51:15.676Z,12.87
2023-04-01T07:54:15.650Z,13.03
2023-04-01T07:57:17.684Z,13.19
2023-04-01T08:00:14.677Z,13.41
2023-04-01T08:03:07.036Z,13.56
2023-04-01T08:06:11.788Z,13.57
2023-04-01T08:09:17.700Z,13.54
2023-04-01T08:12:20.941Z,13.44
2023-04-01T08:15:23.655Z,13.35
2023-04-01T08:18:13.790Z,13.26
2023-04-01T08:21:05.741Z,13.20
2023-04-01T08:23:59.847Z,13.12
2023-04-01T08:26:50.666Z,13.04
2023-04-01T08:29:48.317Z,13.03
2023-04-01T08:32:43.707Z,13.13
2023-04-01T08:35:35.524Z,13.32
2023-04-01T08:38:26.663Z,13.40
2023-04-01T08:41:21.645Z,13.47
2023-04-01T08:44:02.817Z,13.57
2023-04-01T08:47:05.712Z,13.67
2023-04-01T08:49:58.709Z,13.76
2023-04-01T08:52:51.650Z,13.94
2023-04-01T08:55:51.667Z,14.11
2023-04-01T08:59:05.784Z,14.23
2023-04-01T09:02:15.063Z,14.29
2023-04-01T09:05:39.722Z,14.15
2023-04-01T09:08:53.664Z,14.07
2023-04-01T09:11:58.732Z,14.20
2023-04-01T09:15:07.637Z,14.38
2023-04-01T09:17:52.740Z,14.60
2023-04-01T09:20:58.764Z,14.87
2023-04-01T09:24:27.763Z,15.18
2023-04-01T09:27:33.666Z,15.40
2023-04-01T09:30:47.680Z,15.16
2023-04-01T09:33:50.659Z,14.75
2023-04-01T09:36:51.808Z,14.38
2023-04-01T09:39:55.671Z,14.07
2023-04-01T09:42:39.817Z,13.84
2023-04-01T09:45:40.710Z,13.55
2023-04-01T09:48:23.935Z,13.31
2023-04-01T09:51:29.683Z,13.20
2023-04-01T09:54:10.771Z,13.35
2023-04-01T09:57:17.785Z,13.89
2023-04-01T10:00:33.775Z,14.36
2023-04-01T10:03:45.664Z,14.37
2023-04-01T10:06:53.293Z,14.08
2023-04-01T10:09:47.666Z,13.67
2023-04-01T10:12:49.800Z,13.23
2023-04-01T10:16:04.690Z,12.89
2023-04-01T10:18:53.900Z,12.98
2023-04-01T10:22:26.877Z,13.28
2023-04-01T10:25:46.837Z,13.41
2023-04-01T10:28:58.694Z,13.19
2023-04-01T10:32:13.799Z,12.94
2023-04-01T10:35:11.301Z,12.71
2023-04-01T10:38:28.335Z,12.52
2023-04-01T10:41:29.762Z,12.38
2023-04-01T10:44:40.021Z,12.43
2023-04-01T10:47:29.783Z,12.62
2023-04-01T10:50:51.642Z,12.83
2023-04-01T10:53:56.791Z,13.00
2023-04-01T10:57:05.927Z,13.11
2023-04-01T11:00:03.593Z,13.13
2023-04-01T11:03:13.772Z,13.08
2023-04-01T11:06:13.636Z,13.06
2023-04-01T11:09:35.842Z,13.12
2023-04-01T11:12:27.635Z,13.28
2023-04-01T11:15:24.649Z,13.39
2023-04-01T11:18:27.640Z,13.38
2023-04-01T11:21:32.779Z,13.35
2023-04-01T11:24:23.656Z,13.28
2023-04-01T11:27:08.667Z,13.20
2023-04-01T11:30:27.647Z,12.95
2023-04-01T11:33:28.662Z,12.70
2023-04-01T11:36:21.772Z,12.45
2023-04-01T11:39:29.655Z,12.22
2023-04-01T11:42:26.607Z,12.06
2023-04-01T11:45:50.908Z,11.98
2023-04-01T11:48:45.843Z,12.11
2023-04-01T11:51:27.849Z,12.43
2023-04-01T11:54:24.639Z,12.69
2023-04-01T11:57:20.982Z,12.99
2023-04-01T12:00:32.698Z,13.09
2023-04-01T12:03:29.921Z,12.93
2023-04-01T12:06:45.634Z,12.78
2023-04-01T12:09:44.814Z,12.72
2023-04-01T12:13:14.854Z,12.79
2023-04-01T12:16:08.837Z,13.26
2023-04-01T12:18:58.664Z,13.48
2023-04-01T12:21:44.769Z,13.59
2023-04-01T12:24:48.647Z,13.80
2023-04-01T12:27:51.919Z,14.24
2023-04-01T12:31:00.656Z,14.68
2023-04-01T12:33:56.644Z,15.00
2023-04-01T12:36:47.631Z,14.89
2023-04-01T12:39:41.480Z,14.57
2023-04-01T12:42:51.619Z,14.32
2023-04-01T12:45:43.035Z,13.96
2023-04-01T12:48:27.845Z,13.65
2023-04-01T12:51:17.779Z,13.47
2023-04-01T12:54:01.805Z,13.29
2023-04-01T12:56:59.043Z,13.15
2023-04-01T12:59:46.861Z,13.07
2023-04-01T13:02:47.663Z,13.02
2023-04-01T13:05:57.850Z,13.01
2023-04-01T13:09:24.832Z,13.13
2023-04-01T13:13:04.661Z,13.61
2023-04-01T13:16:07.789Z,13.96
2023-04-01T13:19:19.630Z,14.06
2023-04-01T13:22:08.770Z,14.39
2023-04-01T13:25:06.645Z,15.47
2023-04-01T13:28:02.623Z,15.82
2023-04-01T13:30:55.698Z,15.51
2023-04-01T13:33:48.980Z,14.93
2023-04-01T13:36:38.654Z,14.42
2023-04-01T13:39:33.803Z,13.95
2023-04-01T13:42:19.632Z,13.52
2023-04-01T13:45:08.764Z,13.14
2023-04-01T13:47:58.647Z,12.91
2023-04-01T13:51:17.756Z,12.62
2023-04-01T13:54:16.647Z,12.40
2023-04-01T13:57:12.707Z,12.19
2023-04-01T14:00:14.746Z,12.12
2023-04-01T14:03:06.738Z,12.34
2023-04-01T14:06:18.578Z,12.52
2023-04-01T14:09:37.654Z,12.68
2023-04-01T14:12:34.647Z,12.65
2023-04-01T14:15:23.466Z,12.45
2023-04-01T14:18:20.630Z,12.21
2023-04-01T14:20:56.270Z,12.11
2023-04-01T14:24:02.849Z,12.32
2023-04-01T14:27:05.295Z,12.72
2023-04-01T14:30:01.654Z,13.75
2023-04-01T14:32:57.801Z,14.74
2023-04-01T14:35:46.666Z,14.71
2023-04-01T14:38:36.753Z,14.46
2023-04-01T14:42:15.377Z,14.16
2023-04-01T14:45:14.800Z,13.79
2023-04-01T14:48:07.768Z,13.41
2023-04-01T14:50:57.770Z,13.12
2023-04-01T14:54:02.624Z,12.89
2023-04-01T14:57:23.203Z,12.66
2023-04-01T15:00:11.620Z,12.34
2023-04-01T15:03:11.732Z,12.05
2023-04-01T15:06:34.633Z,11.66
2023-04-01T15:09:48.835Z,11.21
2023-04-01T15:12:58.834Z,10.79
2023-04-01T15:16:05.708Z,10.43
2023-04-01T15:18:46.215Z,10.15
2023-04-01T15:21:49.655Z,10.00
2023-04-01T15:24:30.861Z,9.95
2023-04-01T15:27:24.691Z,9.97
2023-04-01T15:30:35.454Z,10.00
2023-04-01T15:34:00.731Z,9.97
2023-04-01T15:36:54.179Z,9.93
2023-04-01T15:40:02.667Z,9.91
2023-04-01T15:43:29.639Z,9.89
2023-04-01T15:46:22.883Z,9.87
2023-04-01T15:49:10.847Z,9.83
2023-04-01T15:52:14.634Z,9.79
2023-04-01T15:55:28.908Z,9.72
2023-04-01T15:58:30.635Z,9.62
2023-04-01T16:01:37.867Z,9.51
2023-04-01T16:04:38.747Z,9.44
2023-04-01T16:07:44.790Z,9.44
2023-04-01T16:10:55.645Z,9.47
2023-04-01T16:14:01.759Z,9.51
2023-04-01T16:16:46.864Z,9.53
2023-04-01T16:20:26.949Z,9.56
2023-04-01T16:23:30.012Z,9.63
2023-04-01T16:26:38.835Z,9.72
2023-04-01T16:29:40.845Z,9.80
2023-04-01T16:32:48.640Z,9.89
2023-04-01T16:35:54.644Z,9.95
2023-04-01T16:38:36.963Z,10.01
2023-04-01T16:41:27.720Z,10.08
2023-04-01T16:44:31.737Z,10.05
2023-04-01T16:47:17.641Z,10.00
2023-04-01T16:50:30.254Z,9.95
2023-04-01T16:53:24.619Z,9.90
2023-04-01T16:56:15.821Z,9.85
2023-04-01T16:59:28.665Z,9.77
2023-04-01T17:02:25.712Z,9.67
2023-04-01T17:05:16.626Z,9.60
2023-04-01T17:08:12.886Z,9.53
2023-04-01T17:11:26.616Z,9.42
2023-04-01T17:14:13.611Z,9.35
2023-04-01T17:17:26.853Z,9.31
2023-04-01T17:20:23.615Z,9.27
2023-04-01T17:23:27.612Z,9.22
2023-04-01T17:26:29.619Z,9.19
2023-04-01T17:29:03.744Z,9.16
2023-04-01T17:32:05.638Z,9.17
2023-04-01T17:35:00.621Z,9.17
2023-04-01T17:38:24.615Z,9.15
2023-04-01T17:40:59.446Z,9.15
2023-04-01T17:43:50.625Z,9.19
2023-04-01T17:46:41.919Z,9.22
2023-04-01T17:49:30.598Z,9.25
2023-04-01T17:52:18.048Z,9.26
2023-04-01T17:55:42.617Z,9.27
2023-04-01T17:58:39.469Z,9.31
2023-04-01T18:01:49.673Z,9.33
2023-04-01T18:04:43.607Z,9.31
2023-04-01T18:08:01.603Z,9.29
2023-04-01T18:10:49.746Z,9.30
2023-04-01T18:13:50.617Z,9.31
2023-04-01T18:16:36.536Z,9.31
2023-04-01T18:19:25.614Z,9.29
2023-04-01T18:22:27.720Z,9.28
2023-04-01T18:25:21.614Z,9.27
2023-04-01T18:28:22.746Z,9.25
2023-04-01T18:31:10.613Z,9.23
2023-04-01T18:34:09.736Z,9.23
2023-04-01T18:37:07.653Z,9.26
2023-04-01T18:39:48.805Z,9.29
2023-04-01T18:43:02.835Z,9.30
2023-04-01T18:46:11.752Z,9.29
2023-04-01T18:49:21.789Z,9.29
2023-04-01T18:52:11.295Z,9.30
2023-04-01T18:55:10.569Z,9.32
2023-04-01T18:57:59.910Z,9.33
2023-04-01T19:00:48.661Z,9.34
2023-04-01T19:03:46.721Z,9.34
2023-04-01T19:06:59.595Z,9.36
2023-04-01T19:09:46.558Z,9.38
2023-04-01T19:13:05.596Z,9.37
2023-04-01T19:16:04.878Z,9.34
2023-04-01T19:19:36.611Z,9.32
2023-04-01T19:22:55.627Z,9.34
2023-04-01T19:25:48.644Z,9.36
2023-04-01T19:29:08.809Z,9.38
2023-04-01T19:31:52.822Z,9.37
2023-04-01T19:35:15.717Z,9.37
2023-04-01T19:38:18.614Z,9.39
2023-04-01T19:41:01.744Z,9.38
2023-04-01T19:43:56.964Z,9.36
2023-04-01T19:46:52.629Z,9.35
2023-04-01T19:49:51.778Z,9.35
2023-04-01T19:52:48.688Z,9.38
2023-04-01T19:55:47.792Z,9.38
2023-04-01T19:58:44.604Z,9.37
2023-04-01T20:01:50.771Z,9.36
2023-04-01T20:05:00.757Z,9.37
2023-04-01T20:07:48.752Z,9.37
2023-04-01T20:11:06.204Z,9.38
2023-04-01T20:13:59.735Z,9.37
2023-04-01T20:16:52.581Z,9.37
2023-04-01T20:19:44.765Z,9.37
2023-04-01T20:22:36.593Z,9.36
2023-04-01T20:25:32.841Z,9.36
2023-04-01T20:28:27.592Z,9.34
2023-04-01T20:31:34.754Z,9.32
2023-04-01T20:34:25.561Z,9.31
2023-04-01T20:37:11.546Z,9.30
2023-04-01T20:40:39.803Z,9.30
2023-04-01T20:44:05.604Z,9.28
2023-04-01T20:47:04.793Z,9.26
2023-04-01T20:49:55.694Z,9.26
2023-04-01T20:52:46.684Z,9.26
2023-04-01T20:55:55.598Z,9.25
2023-04-01T20:58:55.555Z,9.23
2023-04-01T21:01:52.627Z,9.20
2023-04-01T21:04:46.010Z,9.23
2023-04-01T21:07:57.029Z,9.25
2023-04-01T21:10:56.721Z,9.25
2023-04-01T21:13:44.601Z,9.24
2023-04-01T21:17:14.329Z,9.23
2023-04-01T21:20:35.599Z,9.25
2023-04-01T21:23:27.590Z,9.28
2023-04-01T21:26:46.010Z,9.30
2023-04-01T21:29:42.612Z,9.32
2023-04-01T21:32:20.916Z,9.32
2023-04-01T21:35:14.581Z,9.34
2023-04-01T21:37:58.720Z,9.38
2023-04-01T21:41:03.582Z,9.40
2023-04-01T21:44:05.567Z,9.41
2023-04-01T21:47:24.699Z,9.40
2023-04-01T21:50:44.986Z,9.41
2023-04-01T21:53:32.702Z,9.42
2023-04-01T21:56:39.567Z,9.45
2023-04-01T21:59:29.669Z,9.46
2023-04-01T22:02:19.909Z,9.50
2023-04-01T22:05:07.581Z,9.52
2023-04-01T22:08:07.711Z,9.51
2023-04-01T22:11:09.601Z,9.47
2023-04-01T22:13:58.703Z,9.40
2023-04-01T22:16:56.590Z,9.34
2023-04-01T22:20:12.172Z,9.35
2023-04-01T22:23:15.580Z,9.41
2023-04-01T22:26:11.938Z,9.47
2023-04-01T22:29:19.563Z,9.52
2023-04-01T22:32:16.715Z,9.55
2023-04-01T22:35:20.571Z,9.54
2023-04-01T22:38:28.572Z,9.55
2023-04-01T22:41:27.687Z,9.56
2023-04-01T22:44:08.583Z,9.56
2023-04-01T22:47:00.610Z,9.55
2023-04-01T22:49:47.610Z,9.52
2023-04-01T22:52:41.211Z,9.49
2023-04-01T22:55:30.566Z,9.50
2023-04-01T22:58:29.580Z,9.51
2023-04-01T23:01:15.569Z,9.52
2023-04-01T23:03:57.725Z,9.48
2023-04-01T23:06:48.592Z,9.42
2023-04-01T23:09:46.591Z,9.42
2023-04-01T23:12:35.594Z,9.42
2023-04-01T23:15:17.554Z,9.40
2023-04-01T23:18:20.579Z,9.38
2023-04-01T23:21:11.760Z,9.34
2023-04-01T23:24:02.591Z,9.31
2023-04-01T23:27:05.576Z,9.29
2023-04-01T23:30:00.591Z,9.26
2023-04-01T23:32:48.580Z,9.21
2023-04-01T23:35:31.600Z,9.17
2023-04-01T23:38:26.586Z,9.15
2023-04-01T23:41:15.550Z,9.14
2023-04-01T23:43:51.709Z,9.11
2023-04-01T23:46:43.570Z,9.08
2023-04-01T23:49:22.726Z,9.08
2023-04-01T23:52:31.582Z,9.06
2023-04-01T23:55:42.580Z,9.04
2023-04-01T23:58:42.558Z,8.99
